sensor_id;sensor_type;location;lat;lon;timestamp;pressure;altitude;pressure_sealevel;temperature;humidity
76627;BME280;65519;53.230;10.390;2023-02-15T00:01:24;102715.09;;;4.20;88.57
76627;BME280;65519;53.230;10.390;2023-02-15T00:03:50;102712.97;;;4.07;88.92
76627;BME280;65519;53.230;10.390;2023-02-15T00:06:16;102721.28;;;4.28;88.68
76627;BME280;65519;53.230;10.390;2023-02-15T00:08:41;102708.66;;;4.52;88.23
76627;BME280;65519;53.230;10.390;2023-02-15T00:11:12;102715.34;;;4.33;88.05
76627;BME280;65519;53.230;10.390;2023-02-15T00:13:38;102713.59;;;4.17;88.76
76627;BME280;65519;53.230;10.390;2023-02-15T00:16:09;102707.66;;;4.45;88.00
76627;BME280;65519;53.230;10.390;2023-02-15T00:18:35;102713.88;;;4.22;88.62
76627;BME280;65519;53.230;10.390;2023-02-15T00:21:08;102709.94;;;4.56;87.88
76627;BME280;65519;53.230;10.390;2023-02-15T00:23:35;102712.13;;;4.37;87.61
76627;BME280;65519;53.230;10.390;2023-02-15T00:26:08;102701.31;;;4.37;87.19
76627;BME280;65519;53.230;10.390;2023-02-15T00:28:34;102700.28;;;4.84;86.69
76627;BME280;65519;53.230;10.390;2023-02-15T00:31:09;102687.06;;;4.66;86.16
76627;BME280;65519;53.230;10.390;2023-02-15T00:33:36;102688.22;;;4.72;86.38
76627;BME280;65519;53.230;10.390;2023-02-15T00:36:03;102695.53;;;4.86;85.31
76627;BME280;65519;53.230;10.390;2023-02-15T00:38:29;102691.00;;;4.64;85.58
76627;BME280;65519;53.230;10.390;2023-02-15T00:40:59;102677.69;;;4.39;86.65
76627;BME280;65519;53.230;10.390;2023-02-15T00:43:26;102691.03;;;4.33;86.90
76627;BME280;65519;53.230;10.390;2023-02-15T00:45:52;102691.03;;;4.56;86.30
76627;BME280;65519;53.230;10.390;2023-02-15T00:48:18;102683.09;;;4.39;86.62
76627;BME280;65519;53.230;10.390;2023-02-15T00:50:46;102676.34;;;4.35;86.67
76627;BME280;65519;53.230;10.390;2023-02-15T00:53:13;102670.59;;;4.38;86.69
76627;BME280;65519;53.230;10.390;2023-02-15T00:55:38;102668.56;;;4.63;85.92
76627;BME280;65519;53.230;10.390;2023-02-15T00:58:05;102663.34;;;4.62;85.52
76627;BME280;65519;53.230;10.390;2023-02-15T01:00:30;102665.94;;;4.70;84.99
76627;BME280;65519;53.230;10.390;2023-02-15T01:02:56;102665.88;;;4.78;85.01
76627;BME280;65519;53.230;10.390;2023-02-15T01:05:21;102661.88;;;4.74;84.94
76627;BME280;65519;53.230;10.390;2023-02-15T01:07:46;102653.06;;;4.57;85.25
76627;BME280;65519;53.230;10.390;2023-02-15T01:10:12;102658.00;;;3.69;87.28
76627;BME280;65519;53.230;10.390;2023-02-15T01:12:37;102660.28;;;4.19;86.92
76627;BME280;65519;53.230;10.390;2023-02-15T01:15:03;102658.50;;;4.03;86.17
76627;BME280;65519;53.230;10.390;2023-02-15T01:17:29;102659.91;;;3.91;87.29
76627;BME280;65519;53.230;10.390;2023-02-15T01:19:54;102656.16;;;4.31;86.70
76627;BME280;65519;53.230;10.390;2023-02-15T01:22:19;102651.50;;;4.17;86.25
76627;BME280;65519;53.230;10.390;2023-02-15T01:24:45;102657.09;;;3.85;87.37
76627;BME280;65519;53.230;10.390;2023-02-15T01:27:10;102651.38;;;3.88;87.46
76627;BME280;65519;53.230;10.390;2023-02-15T01:29:36;102652.31;;;3.95;87.22
76627;BME280;65519;53.230;10.390;2023-02-15T01:32:01;102653.03;;;3.89;87.23
76627;BME280;65519;53.230;10.390;2023-02-15T01:34:29;102638.38;;;3.83;87.41
76627;BME280;65519;53.230;10.390;2023-02-15T01:36:54;102642.78;;;3.84;87.45
76627;BME280;65519;53.230;10.390;2023-02-15T01:39:19;102640.16;;;3.99;87.29
76627;BME280;65519;53.230;10.390;2023-02-15T01:41:45;102629.56;;;3.66;87.96
76627;BME280;65519;53.230;10.390;2023-02-15T01:47:09;102634.56;;;3.78;88.35
76627;BME280;65519;53.230;10.390;2023-02-15T01:49:35;102633.44;;;3.64;88.13
76627;BME280;65519;53.230;10.390;2023-02-15T01:52:01;102627.97;;;4.03;87.47
76627;BME280;65519;53.230;10.390;2023-02-15T01:54:32;102617.56;;;4.00;86.78
76627;BME280;65519;53.230;10.390;2023-02-15T01:57:06;102620.41;;;3.76;87.48
76627;BME280;65519;53.230;10.390;2023-02-15T01:59:35;102613.53;;;3.65;87.56
76627;BME280;65519;53.230;10.390;2023-02-15T02:02:02;102604.00;;;3.85;87.69
76627;BME280;65519;53.230;10.390;2023-02-15T02:04:47;102608.94;;;3.74;87.63
76627;BME280;65519;53.230;10.390;2023-02-15T02:07:16;102609.00;;;3.65;87.82
76627;BME280;65519;53.230;10.390;2023-02-15T02:09:44;102609.56;;;3.84;86.84
76627;BME280;65519;53.230;10.390;2023-02-15T02:12:10;102607.44;;;3.71;86.99
76627;BME280;65519;53.230;10.390;2023-02-15T02:14:36;102609.47;;;3.69;87.07
76627;BME280;65519;53.230;10.390;2023-02-15T02:27:47;102606.75;;;3.69;86.50
76627;BME280;65519;53.230;10.390;2023-02-15T02:31:08;102607.59;;;3.78;86.00
76627;BME280;65519;53.230;10.390;2023-02-15T02:36:19;102594.03;;;3.86;86.01
76627;BME280;65519;53.230;10.390;2023-02-15T02:44:46;102591.56;;;3.45;86.97
76627;BME280;65519;53.230;10.390;2023-02-15T02:46:52;102588.16;;;3.04;89.50
76627;BME280;65519;53.230;10.390;2023-02-15T02:49:37;102590.66;;;3.22;88.71
76627;BME280;65519;53.230;10.390;2023-02-15T02:55:02;102575.00;;;3.79;87.06
76627;BME280;65519;53.230;10.390;2023-02-15T02:57:29;102566.72;;;3.58;85.77
76627;BME280;65519;53.230;10.390;2023-02-15T02:59:58;102573.00;;;3.50;87.45
76627;BME280;65519;53.230;10.390;2023-02-15T03:02:32;102565.78;;;3.74;87.57
76627;BME280;65519;53.230;10.390;2023-02-15T03:05:07;102561.53;;;3.56;86.04
76627;BME280;65519;53.230;10.390;2023-02-15T03:07:34;102560.53;;;3.49;86.15
76627;BME280;65519;53.230;10.390;2023-02-15T03:10:03;102564.47;;;3.39;85.95
76627;BME280;65519;53.230;10.390;2023-02-15T03:12:30;102558.41;;;3.37;86.12
76627;BME280;65519;53.230;10.390;2023-02-15T03:17:36;102563.00;;;3.28;86.22
76627;BME280;65519;53.230;10.390;2023-02-15T03:20:08;102564.09;;;3.11;87.81
76627;BME280;65519;53.230;10.390;2023-02-15T03:22:39;102564.19;;;3.25;87.51
76627;BME280;65519;53.230;10.390;2023-02-15T03:25:10;102558.44;;;3.28;87.35
76627;BME280;65519;53.230;10.390;2023-02-15T03:27:43;102532.59;;;3.42;86.12
76627;BME280;65519;53.230;10.390;2023-02-15T03:30:11;102555.00;;;3.74;85.28
76627;BME280;65519;53.230;10.390;2023-02-15T03:32:39;102547.19;;;3.56;84.26
76627;BME280;65519;53.230;10.390;2023-02-15T03:35:06;102540.69;;;3.11;86.23
76627;BME280;65519;53.230;10.390;2023-02-15T03:37:32;102541.94;;;3.32;85.13
76627;BME280;65519;53.230;10.390;2023-02-15T03:43:01;102535.59;;;3.16;85.25
76627;BME280;65519;53.230;10.390;2023-02-15T03:45:31;102534.94;;;2.59;86.30
76627;BME280;65519;53.230;10.390;2023-02-15T03:48:00;102520.75;;;2.73;88.22
76627;BME280;65519;53.230;10.390;2023-02-15T03:50:33;102527.47;;;2.85;87.14
76627;BME280;65519;53.230;10.390;2023-02-15T03:53:20;102533.53;;;2.87;85.95
76627;BME280;65519;53.230;10.390;2023-02-15T03:55:48;102524.25;;;2.90;85.92
76627;BME280;65519;53.230;10.390;2023-02-15T03:58:14;102534.88;;;2.91;85.72
76627;BME280;65519;53.230;10.390;2023-02-15T04:06:59;102534.03;;;2.83;86.02
76627;BME280;65519;53.230;10.390;2023-02-15T04:09:25;102532.22;;;2.75;85.49
76627;BME280;65519;53.230;10.390;2023-02-15T04:12:09;102533.06;;;2.68;84.91
76627;BME280;65519;53.230;10.390;2023-02-15T04:14:34;102521.19;;;2.46;85.92
76627;BME280;65519;53.230;10.390;2023-02-15T04:17:19;102523.53;;;2.16;87.44
76627;BME280;65519;53.230;10.390;2023-02-15T04:19:44;102522.19;;;2.45;86.83
76627;BME280;65519;53.230;10.390;2023-02-15T04:22:28;102508.75;;;2.29;86.50
76627;BME280;65519;53.230;10.390;2023-02-15T04:25:11;102515.16;;;2.19;87.13
76627;BME280;65519;53.230;10.390;2023-02-15T04:27:43;102517.03;;;1.95;87.63
76627;BME280;65519;53.230;10.390;2023-02-15T04:30:10;102506.59;;;1.83;88.02
76627;BME280;65519;53.230;10.390;2023-02-15T04:32:36;102499.69;;;1.89;87.85
76627;BME280;65519;53.230;10.390;2023-02-15T04:35:02;102506.59;;;1.92;87.95
76627;BME280;65519;53.230;10.390;2023-02-15T04:37:28;102496.84;;;1.91;87.34
76627;BME280;65519;53.230;10.390;2023-02-15T04:39:53;102503.88;;;2.08;86.52
76627;BME280;65519;53.230;10.390;2023-02-15T04:42:19;102499.69;;;2.22;86.03
76627;BME280;65519;53.230;10.390;2023-02-15T04:44:44;102495.66;;;1.61;87.37
76627;BME280;65519;53.230;10.390;2023-02-15T04:47:10;102501.03;;;1.61;87.91
76627;BME280;65519;53.230;10.390;2023-02-15T04:49:35;102492.63;;;1.88;88.02
76627;BME280;65519;53.230;10.390;2023-02-15T04:52:01;102493.31;;;2.14;86.42
76627;BME280;65519;53.230;10.390;2023-02-15T04:54:26;102487.25;;;2.04;86.64
76627;BME280;65519;53.230;10.390;2023-02-15T04:56:51;102488.25;;;1.87;86.69
76627;BME280;65519;53.230;10.390;2023-02-15T04:59:17;102490.63;;;1.82;86.99
76627;BME280;65519;53.230;10.390;2023-02-15T05:01:42;102485.06;;;2.16;86.20
76627;BME280;65519;53.230;10.390;2023-02-15T05:04:08;102481.81;;;2.29;84.70
76627;BME280;65519;53.230;10.390;2023-02-15T05:06:34;102487.41;;;2.27;84.91
76627;BME280;65519;53.230;10.390;2023-02-15T05:08:59;102486.25;;;2.13;85.37
76627;BME280;65519;53.230;10.390;2023-02-15T05:11:25;102481.53;;;2.07;85.14
76627;BME280;65519;53.230;10.390;2023-02-15T05:13:51;102488.75;;;2.07;85.85
76627;BME280;65519;53.230;10.390;2023-02-15T05:16:16;102489.94;;;2.12;85.32
76627;BME280;65519;53.230;10.390;2023-02-15T05:18:42;102491.09;;;2.18;85.40
76627;BME280;65519;53.230;10.390;2023-02-15T05:21:07;102486.72;;;2.33;84.26
76627;BME280;65519;53.230;10.390;2023-02-15T05:23:33;102492.28;;;1.59;86.79
76627;BME280;65519;53.230;10.390;2023-02-15T05:25:58;102487.44;;;1.04;88.39
76627;BME280;65519;53.230;10.390;2023-02-15T05:28:42;102475.44;;;1.32;87.79
76627;BME280;65519;53.230;10.390;2023-02-15T05:33:37;102480.84;;;1.65;86.86
76627;BME280;65519;53.230;10.390;2023-02-15T05:36:04;102473.13;;;1.62;86.31
76627;BME280;65519;53.230;10.390;2023-02-15T05:38:29;102472.09;;;1.63;86.80
76627;BME280;65519;53.230;10.390;2023-02-15T05:40:55;102476.66;;;1.62;85.83
76627;BME280;65519;53.230;10.390;2023-02-15T05:43:21;102474.09;;;1.28;87.40
76627;BME280;65519;53.230;10.390;2023-02-15T05:45:52;102467.75;;;1.62;86.88
76627;BME280;65519;53.230;10.390;2023-02-15T05:48:19;102465.72;;;1.64;85.18
76627;BME280;65519;53.230;10.390;2023-02-15T05:50:45;102461.38;;;1.79;85.79
76627;BME280;65519;53.230;10.390;2023-02-15T05:53:10;102465.75;;;1.88;85.42
76627;BME280;65519;53.230;10.390;2023-02-15T05:55:40;102462.19;;;1.96;84.09
76627;BME280;65519;53.230;10.390;2023-02-15T05:58:06;102466.06;;;2.01;85.09
76627;BME280;65519;53.230;10.390;2023-02-15T06:00:31;102456.69;;;1.81;85.00
76627;BME280;65519;53.230;10.390;2023-02-15T06:02:57;102457.81;;;1.54;85.64
76627;BME280;65519;53.230;10.390;2023-02-15T06:05:22;102457.66;;;1.56;86.53
76627;BME280;65519;53.230;10.390;2023-02-15T06:07:48;102457.34;;;1.67;86.04
76627;BME280;65519;53.230;10.390;2023-02-15T06:10:13;102457.69;;;1.80;85.25
76627;BME280;65519;53.230;10.390;2023-02-15T06:12:39;102450.44;;;1.80;85.09
76627;BME280;65519;53.230;10.390;2023-02-15T06:15:04;102453.97;;;1.49;86.01
76627;BME280;65519;53.230;10.390;2023-02-15T06:17:30;102454.09;;;1.31;87.47
76627;BME280;65519;53.230;10.390;2023-02-15T06:19:55;102450.91;;;1.27;87.51
76627;BME280;65519;53.230;10.390;2023-02-15T06:22:21;102457.81;;;1.54;86.60
76627;BME280;65519;53.230;10.390;2023-02-15T06:24:46;102456.22;;;1.11;87.37
76627;BME280;65519;53.230;10.390;2023-02-15T06:27:12;102457.31;;;1.34;88.09
76627;BME280;65519;53.230;10.390;2023-02-15T06:29:38;102459.50;;;1.55;86.81
76627;BME280;65519;53.230;10.390;2023-02-15T06:32:03;102461.34;;;1.63;87.28
76627;BME280;65519;53.230;10.390;2023-02-15T06:34:29;102467.03;;;1.35;86.97
76627;BME280;65519;53.230;10.390;2023-02-15T06:36:54;102468.72;;;1.44;87.65
76627;BME280;65519;53.230;10.390;2023-02-15T06:39:20;102476.31;;;1.65;87.85
76627;BME280;65519;53.230;10.390;2023-02-15T06:41:45;102461.03;;;1.74;86.74
76627;BME280;65519;53.230;10.390;2023-02-15T06:44:10;102468.03;;;1.18;87.85
76627;BME280;65519;53.230;10.390;2023-02-15T06:46:36;102468.59;;;1.70;87.63
76627;BME280;65519;53.230;10.390;2023-02-15T06:49:01;102459.53;;;1.79;86.46
76627;BME280;65519;53.230;10.390;2023-02-15T06:51:26;102458.19;;;1.92;86.20
76627;BME280;65519;53.230;10.390;2023-02-15T06:53:52;102462.06;;;1.81;86.22
76627;BME280;65519;53.230;10.390;2023-02-15T06:56:17;102461.03;;;1.82;86.96
76627;BME280;65519;53.230;10.390;2023-02-15T06:58:43;102455.16;;;1.95;85.48
76627;BME280;65519;53.230;10.390;2023-02-15T07:01:11;102447.56;;;2.14;84.75
76627;BME280;65519;53.230;10.390;2023-02-15T07:03:36;102452.63;;;1.61;86.93
76627;BME280;65519;53.230;10.390;2023-02-15T07:06:03;102447.25;;;1.61;86.81
76627;BME280;65519;53.230;10.390;2023-02-15T07:08:31;102455.31;;;1.53;87.48
76627;BME280;65519;53.230;10.390;2023-02-15T07:10:56;102437.50;;;1.43;86.83
76627;BME280;65519;53.230;10.390;2023-02-15T07:13:45;102443.91;;;1.59;87.05
76627;BME280;65519;53.230;10.390;2023-02-15T07:16:10;102436.47;;;1.53;87.04
76627;BME280;65519;53.230;10.390;2023-02-15T07:18:36;102433.81;;;1.77;86.76
76627;BME280;65519;53.230;10.390;2023-02-15T07:21:02;102427.38;;;2.10;84.77
76627;BME280;65519;53.230;10.390;2023-02-15T07:23:27;102433.28;;;1.98;85.34
76627;BME280;65519;53.230;10.390;2023-02-15T07:25:57;102422.69;;;1.96;84.68
76627;BME280;65519;53.230;10.390;2023-02-15T07:28:22;102426.41;;;1.46;86.01
76627;BME280;65519;53.230;10.390;2023-02-15T07:30:48;102417.53;;;1.70;85.61
76627;BME280;65519;53.230;10.390;2023-02-15T07:33:13;102425.22;;;1.73;85.56
76627;BME280;65519;53.230;10.390;2023-02-15T07:35:58;102427.41;;;1.29;87.08
76627;BME280;65519;53.230;10.390;2023-02-15T07:38:25;102430.75;;;0.65;88.23
76627;BME280;65519;53.230;10.390;2023-02-15T07:40:56;102427.44;;;0.79;88.63
76627;BME280;65519;53.230;10.390;2023-02-15T07:43:22;102426.16;;;0.49;89.89
76627;BME280;65519;53.230;10.390;2023-02-15T07:45:48;102419.84;;;0.66;89.21
76627;BME280;65519;53.230;10.390;2023-02-15T07:48:13;102408.50;;;0.81;89.14
76627;BME280;65519;53.230;10.390;2023-02-15T07:50:38;102425.00;;;1.02;88.32
76627;BME280;65519;53.230;10.390;2023-02-15T07:53:04;102416.94;;;1.10;88.30
76627;BME280;65519;53.230;10.390;2023-02-15T07:55:29;102425.06;;;1.34;87.74
76627;BME280;65519;53.230;10.390;2023-02-15T07:57:55;102427.84;;;1.08;87.04
76627;BME280;65519;53.230;10.390;2023-02-15T08:00:21;102425.97;;;0.93;88.14
76627;BME280;65519;53.230;10.390;2023-02-15T08:02:54;102429.69;;;0.50;90.15
76627;BME280;65519;53.230;10.390;2023-02-15T08:05:42;102412.50;;;0.77;89.61
76627;BME280;65519;53.230;10.390;2023-02-15T08:08:09;102426.69;;;1.03;88.65
76627;BME280;65519;53.230;10.390;2023-02-15T08:10:58;102412.78;;;1.24;87.57
76627;BME280;65519;53.230;10.390;2023-02-15T08:13:43;102410.84;;;0.84;88.39
76627;BME280;65519;53.230;10.390;2023-02-15T08:18:52;102400.16;;;1.00;87.72
76627;BME280;65519;53.230;10.390;2023-02-15T08:21:18;102397.81;;;1.05;87.65
76627;BME280;65519;53.230;10.390;2023-02-15T08:23:43;102406.22;;;1.10;87.69
76627;BME280;65519;53.230;10.390;2023-02-15T08:26:09;102389.72;;;0.89;88.38
76627;BME280;65519;53.230;10.390;2023-02-15T08:28:34;102400.50;;;1.05;89.38
76627;BME280;65519;53.230;10.390;2023-02-15T08:33:31;102407.09;;;1.43;86.63
76627;BME280;65519;53.230;10.390;2023-02-15T08:36:02;102408.28;;;1.49;86.16
76627;BME280;65519;53.230;10.390;2023-02-15T08:38:28;102405.44;;;1.50;85.69
76627;BME280;65519;53.230;10.390;2023-02-15T08:40:53;102398.84;;;1.20;88.18
76627;BME280;65519;53.230;10.390;2023-02-15T08:43:18;102396.47;;;1.01;88.03
76627;BME280;65519;53.230;10.390;2023-02-15T08:45:44;102395.50;;;1.26;88.05
76627;BME280;65519;53.230;10.390;2023-02-15T08:48:09;102393.31;;;1.54;86.52
76627;BME280;65519;53.230;10.390;2023-02-15T08:50:34;102385.06;;;1.88;85.46
76627;BME280;65519;53.230;10.390;2023-02-15T08:53:00;102378.03;;;1.71;86.92
76627;BME280;65519;53.230;10.390;2023-02-15T08:55:25;102375.31;;;2.03;85.64
76627;BME280;65519;53.230;10.390;2023-02-15T08:57:50;102368.94;;;1.88;85.76
76627;BME280;65519;53.230;10.390;2023-02-15T09:00:16;102372.97;;;1.84;86.47
76627;BME280;65519;53.230;10.390;2023-02-15T09:02:42;102371.31;;;1.83;86.71
76627;BME280;65519;53.230;10.390;2023-02-15T09:05:07;102370.59;;;2.05;85.67
76627;BME280;65519;53.230;10.390;2023-02-15T09:07:33;102374.03;;;2.30;85.09
76627;BME280;65519;53.230;10.390;2023-02-15T09:09:58;102379.06;;;2.33;84.39
76627;BME280;65519;53.230;10.390;2023-02-15T09:12:23;102364.41;;;2.44;83.71
76627;BME280;65519;53.230;10.390;2023-02-15T09:14:49;102378.53;;;2.46;84.12
76627;BME280;65519;53.230;10.390;2023-02-15T09:17:14;102377.91;;;2.28;84.38
76627;BME280;65519;53.230;10.390;2023-02-15T09:19:39;102382.13;;;2.22;85.15
76627;BME280;65519;53.230;10.390;2023-02-15T09:22:05;102393.75;;;2.14;85.14
76627;BME280;65519;53.230;10.390;2023-02-15T09:24:32;102387.03;;;2.10;86.28
76627;BME280;65519;53.230;10.390;2023-02-15T09:26:58;102382.03;;;1.91;86.28
76627;BME280;65519;53.230;10.390;2023-02-15T09:29:24;102378.38;;;1.68;87.15
76627;BME280;65519;53.230;10.390;2023-02-15T09:31:50;102368.78;;;1.81;87.15
76627;BME280;65519;53.230;10.390;2023-02-15T09:34:17;102374.22;;;2.20;85.47
76627;BME280;65519;53.230;10.390;2023-02-15T09:36:43;102370.41;;;2.15;85.27
76627;BME280;65519;53.230;10.390;2023-02-15T09:49:58;102359.63;;;2.54;84.73
76627;BME280;65519;53.230;10.390;2023-02-15T10:00:14;102359.59;;;2.23;86.62
76627;BME280;65519;53.230;10.390;2023-02-15T10:13:31;102366.50;;;3.18;83.40
76627;BME280;65519;53.230;10.390;2023-02-15T10:21:44;102362.19;;;3.32;83.96
76627;BME280;65519;53.230;10.390;2023-02-15T10:24:39;102368.09;;;3.27;83.73
76627;BME280;65519;53.230;10.390;2023-02-15T10:27:13;102356.03;;;3.23;83.81
76627;BME280;65519;53.230;10.390;2023-02-15T10:32:20;102357.44;;;2.88;85.60
76627;BME280;65519;53.230;10.390;2023-02-15T10:35:03;102364.69;;;3.11;85.53
76627;BME280;65519;53.230;10.390;2023-02-15T10:46:06;102350.41;;;3.48;84.18
76627;BME280;65519;53.230;10.390;2023-02-15T10:51:03;102350.69;;;3.76;83.29
76627;BME280;65519;53.230;10.390;2023-02-15T10:56:26;102338.41;;;3.88;82.96
76627;BME280;65519;53.230;10.390;2023-02-15T11:06:58;102336.00;;;4.08;83.50
76627;BME280;65519;53.230;10.390;2023-02-15T11:09:38;102331.69;;;4.13;82.37
76627;BME280;65519;53.230;10.390;2023-02-15T11:12:11;102332.44;;;3.78;84.01
76627;BME280;65519;53.230;10.390;2023-02-15T11:17:09;102326.38;;;4.49;82.40
76627;BME280;65519;53.230;10.390;2023-02-15T11:19:38;102315.88;;;4.75;81.49
76627;BME280;65519;53.230;10.390;2023-02-15T11:22:09;102311.94;;;4.78;81.89
76627;BME280;65519;53.230;10.390;2023-02-15T11:24:41;102308.63;;;5.19;80.67
76627;BME280;65519;53.230;10.390;2023-02-15T11:27:25;102312.34;;;5.39;80.08
76627;BME280;65519;53.230;10.390;2023-02-15T11:30:12;102301.19;;;5.48;79.59
76627;BME280;65519;53.230;10.390;2023-02-15T11:32:46;102302.69;;;5.85;78.96
76627;BME280;65519;53.230;10.390;2023-02-15T11:37:46;102276.75;;;5.98;77.26
76627;BME280;65519;53.230;10.390;2023-02-15T11:40:28;102290.41;;;6.17;77.10
76627;BME280;65519;53.230;10.390;2023-02-15T11:43:05;102282.97;;;6.33;76.74
76627;BME280;65519;53.230;10.390;2023-02-15T11:45:33;102281.41;;;6.58;75.65
76627;BME280;65519;53.230;10.390;2023-02-15T11:48:10;102278.13;;;6.82;74.99
76627;BME280;65519;53.230;10.390;2023-02-15T11:50:36;102278.38;;;7.07;75.35
76627;BME280;65519;53.230;10.390;2023-02-15T11:53:04;102271.28;;;7.00;74.91
76627;BME280;65519;53.230;10.390;2023-02-15T11:55:32;102265.88;;;7.13;74.37
76627;BME280;65519;53.230;10.390;2023-02-15T12:00:51;102265.25;;;7.44;73.32
76627;BME280;65519;53.230;10.390;2023-02-15T12:03:48;102268.53;;;7.85;72.03
76627;BME280;65519;53.230;10.390;2023-02-15T12:06:41;102257.41;;;8.00;72.62
76627;BME280;65519;53.230;10.390;2023-02-15T12:09:32;102252.69;;;7.76;71.85
76627;BME280;65519;53.230;10.390;2023-02-15T12:15:01;102237.88;;;8.23;70.11
76627;BME280;65519;53.230;10.390;2023-02-15T12:17:29;102242.88;;;8.39;69.51
76627;BME280;65519;53.230;10.390;2023-02-15T12:22:55;102253.84;;;8.89;69.27
76627;BME280;65519;53.230;10.390;2023-02-15T12:25:35;102246.22;;;9.04;68.17
76627;BME280;65519;53.230;10.390;2023-02-15T12:28:03;102228.41;;;9.08;68.12
76627;BME280;65519;53.230;10.390;2023-02-15T12:30:30;102235.38;;;9.22;69.02
76627;BME280;65519;53.230;10.390;2023-02-15T12:32:59;102234.50;;;9.28;66.54
76627;BME280;65519;53.230;10.390;2023-02-15T12:35:31;102227.22;;;9.47;66.20
76627;BME280;65519;53.230;10.390;2023-02-15T12:40:35;102214.88;;;9.63;66.37
76627;BME280;65519;53.230;10.390;2023-02-15T12:43:01;102200.59;;;9.85;65.88
76627;BME280;65519;53.230;10.390;2023-02-15T12:45:35;102196.81;;;9.86;66.13
76627;BME280;65519;53.230;10.390;2023-02-15T12:50:44;102189.41;;;9.75;64.89
76627;BME280;65519;53.230;10.390;2023-02-15T12:55:52;102182.25;;;9.81;64.86
76627;BME280;65519;53.230;10.390;2023-02-15T12:58:18;102186.31;;;9.90;66.07
76627;BME280;65519;53.230;10.390;2023-02-15T13:00:45;102183.38;;;9.92;65.90
76627;BME280;65519;53.230;10.390;2023-02-15T13:03:19;102189.63;;;9.74;66.11
76627;BME280;65519;53.230;10.390;2023-02-15T13:05:48;102188.19;;;10.08;65.82
76627;BME280;65519;53.230;10.390;2023-02-15T13:08:18;102180.69;;;10.21;65.54
76627;BME280;65519;53.230;10.390;2023-02-15T13:10:58;102177.97;;;10.21;64.99
76627;BME280;65519;53.230;10.390;2023-02-15T13:13:27;102160.38;;;10.36;64.63
76627;BME280;65519;53.230;10.390;2023-02-15T13:15:58;102166.16;;;10.57;64.13
76627;BME280;65519;53.230;10.390;2023-02-15T13:18:31;102163.34;;;10.76;63.61
76627;BME280;65519;53.230;10.390;2023-02-15T13:21:06;102155.03;;;10.71;63.93
76627;BME280;65519;53.230;10.390;2023-02-15T13:23:35;102166.78;;;10.94;62.88
76627;BME280;65519;53.230;10.390;2023-02-15T13:26:04;102158.84;;;10.81;62.09
76627;BME280;65519;53.230;10.390;2023-02-15T13:28:51;102155.28;;;10.92;62.18
76627;BME280;65519;53.230;10.390;2023-02-15T13:31:20;102156.63;;;11.02;62.37
76627;BME280;65519;53.230;10.390;2023-02-15T13:33:56;102150.09;;;11.03;62.03
76627;BME280;65519;53.230;10.390;2023-02-15T13:36:28;102150.19;;;10.96;61.62
76627;BME280;65519;53.230;10.390;2023-02-15T13:41:58;102145.81;;;10.42;64.77
76627;BME280;65519;53.230;10.390;2023-02-15T13:45:19;102137.84;;;10.70;65.15
76627;BME280;65519;53.230;10.390;2023-02-15T13:50:37;102142.94;;;11.25;63.11
76627;BME280;65519;53.230;10.390;2023-02-15T13:56:13;102137.91;;;11.80;62.17
76627;BME280;65519;53.230;10.390;2023-02-15T14:15:09;102119.28;;;11.65;62.15
76627;BME280;65519;53.230;10.390;2023-02-15T14:32:10;102103.56;;;11.32;62.74
76627;BME280;65519;53.230;10.390;2023-02-15T14:34:52;102099.41;;;10.95;64.58
76627;BME280;65519;53.230;10.390;2023-02-15T14:50:38;102113.22;;;10.17;67.86
76627;BME280;65519;53.230;10.390;2023-02-15T14:55:42;102104.88;;;10.00;68.18
76627;BME280;65519;53.230;10.390;2023-02-15T14:58:11;102105.38;;;9.79;68.32
76627;BME280;65519;53.230;10.390;2023-02-15T15:00:38;102115.66;;;9.77;68.51
76627;BME280;65519;53.230;10.390;2023-02-15T15:03:30;102108.97;;;9.61;69.47
76627;BME280;65519;53.230;10.390;2023-02-15T15:05:59;102111.00;;;9.47;69.69
76627;BME280;65519;53.230;10.390;2023-02-15T15:10:54;102113.56;;;9.42;70.70
76627;BME280;65519;53.230;10.390;2023-02-15T15:15:54;102106.63;;;9.28;70.71
76627;BME280;65519;53.230;10.390;2023-02-15T15:18:42;102104.56;;;9.24;71.20
76627;BME280;65519;53.230;10.390;2023-02-15T15:21:08;102099.13;;;9.24;71.75
76627;BME280;65519;53.230;10.390;2023-02-15T15:23:44;102100.88;;;9.18;72.39
76627;BME280;65519;53.230;10.390;2023-02-15T15:26:30;102098.06;;;9.06;72.47
76627;BME280;65519;53.230;10.390;2023-02-15T15:28:59;102108.22;;;8.93;73.38
76627;BME280;65519;53.230;10.390;2023-02-15T15:42:15;102108.69;;;8.65;74.59
76627;BME280;65519;53.230;10.390;2023-02-15T15:50:27;102108.88;;;8.38;75.10
76627;BME280;65519;53.230;10.390;2023-02-15T15:52:55;102106.00;;;8.27;75.53
76627;BME280;65519;53.230;10.390;2023-02-15T15:55:25;102087.88;;;8.21;76.34
76627;BME280;65519;53.230;10.390;2023-02-15T15:57:56;102106.28;;;8.19;77.00
76627;BME280;65519;53.230;10.390;2023-02-15T16:02:53;102106.03;;;7.82;78.91
76627;BME280;65519;53.230;10.390;2023-02-15T16:05:20;102104.38;;;7.81;78.55
76627;BME280;65519;53.230;10.390;2023-02-15T16:07:45;102092.72;;;7.74;78.45
76627;BME280;65519;53.230;10.390;2023-02-15T16:10:30;102094.34;;;7.82;77.89
76627;BME280;65519;53.230;10.390;2023-02-15T16:13:01;102090.44;;;7.71;79.10
76627;BME280;65519;53.230;10.390;2023-02-15T16:15:47;102088.56;;;7.72;78.64
76627;BME280;65519;53.230;10.390;2023-02-15T16:18:21;102091.53;;;7.63;79.37
76627;BME280;65519;53.230;10.390;2023-02-15T16:20:58;102090.06;;;7.61;78.59
76627;BME280;65519;53.230;10.390;2023-02-15T16:28:39;102079.91;;;7.43;80.37
76627;BME280;65519;53.230;10.390;2023-02-15T16:31:22;102067.44;;;7.29;81.21
76627;BME280;65519;53.230;10.390;2023-02-15T16:33:52;102071.63;;;7.31;79.93